CPA2 weather

Mount Forest (Louise Marshall Hospital) Heliport
Mount Forest, Ontario, Canada

Public forecast

Using degrees Celsius for public forecast. Weather courtesy of forecast.io.

Closest aviation weather report (METAR) to Mount Forest (Louise Marshall Hospital) Heliport

Closest report is Waterloo Airport, 34.5 nm (64.0 km) SSE. Retrieved 2020/01/24 04:00 UTC (27 minutes ago):

CYKF 240400Z AUTO 08008KT 9SM OVC160 M01/M03 A3023 RMK SLP252

Closest aviation forecast (TAF) to Mount Forest (Louise Marshall Hospital) Heliport

Closest forecast is Waterloo Airport, 34.5 nm (64.0 km) SSE. Retrieved 2020-01-24 02:42 UTC (2 hours ago):

TAF CYKF 240138Z 2402/2414 09010KT P6SM FEW080 OVC120 FM240300 08008KT P6SM SCT060 BKN090 FM241200 08008KT P6SM SCT030 OVC060 PROB30 2412/2414 P6SM -FZRA BKN030 OVC060 RMK FCST BASED ON AUTO OBS NXT FCST BY 240800Z